createdAt,value
2018-06-21T00:01:05.334Z,100811.00
2018-06-21T00:03:35.527Z,100810.00
2018-06-21T00:06:06.379Z,100807.00
2018-06-21T00:08:36.656Z,100813.00
2018-06-21T00:11:07.113Z,100818.00
2018-06-21T00:13:37.396Z,100819.00
2018-06-21T00:16:07.809Z,100823.00
2018-06-21T00:18:38.119Z,100819.00
2018-06-21T00:21:08.402Z,100818.00
2018-06-21T00:23:38.590Z,100825.00
2018-06-21T00:26:09.287Z,100824.00
2018-06-21T00:28:40.340Z,100828.00
2018-06-21T00:31:11.004Z,100825.00
2018-06-21T00:33:41.313Z,100831.00
2018-06-21T00:36:12.535Z,100828.00
2018-06-21T00:38:42.869Z,100823.00
2018-06-21T00:41:14.042Z,100828.00
2018-06-21T00:43:44.226Z,100837.00
2018-06-21T00:46:20.902Z,100827.00
2018-06-21T00:48:51.459Z,100834.00
2018-06-21T00:51:21.864Z,100845.00
2018-06-21T00:53:51.906Z,100835.00
2018-06-21T00:56:22.888Z,100846.00
2018-06-21T00:58:54.873Z,100836.00
2018-06-21T01:01:25.210Z,100837.00
2018-06-21T01:03:55.689Z,100845.00
2018-06-21T01:06:25.926Z,100844.00
2018-06-21T01:08:56.350Z,100848.00
2018-06-21T01:11:26.564Z,100844.00
2018-06-21T01:13:56.793Z,100853.00
2018-06-21T01:16:27.351Z,100853.00
2018-06-21T01:18:57.858Z,100849.00
2018-06-21T01:21:28.280Z,100854.00
2018-06-21T01:23:58.613Z,100848.00
2018-06-21T01:26:28.858Z,100846.00
2018-06-21T01:28:59.052Z,100858.00
2018-06-21T01:31:29.473Z,100848.00
2018-06-21T01:34:00.222Z,100838.00
2018-06-21T01:36:30.256Z,100853.00
2018-06-21T01:39:00.829Z,100863.00
2018-06-21T01:41:31.108Z,100870.00
2018-06-21T01:44:01.571Z,100866.00
2018-06-21T01:46:32.330Z,100864.00
2018-06-21T01:49:02.713Z,100863.00
2018-06-21T01:51:32.839Z,100862.00
2018-06-21T01:54:03.268Z,100866.00
2018-06-21T01:56:34.081Z,100858.00
2018-06-21T01:59:04.948Z,100861.00
2018-06-21T02:01:35.322Z,100870.00
2018-06-21T02:04:05.445Z,100862.00
2018-06-21T02:06:35.820Z,100853.00
2018-06-21T02:09:09.341Z,100855.00
2018-06-21T02:11:39.790Z,100853.00
2018-06-21T02:14:10.246Z,100861.00
2018-06-21T02:16:40.501Z,100863.00
2018-06-21T02:19:10.971Z,100848.00
2018-06-21T02:21:40.996Z,100855.00
2018-06-21T02:24:11.525Z,100856.00
2018-06-21T02:26:41.746Z,100857.00
2018-06-21T02:29:12.124Z,100861.00
2018-06-21T02:31:42.420Z,100864.00
2018-06-21T02:34:12.698Z,100868.00
2018-06-21T02:36:43.341Z,100869.00
2018-06-21T02:39:14.002Z,100861.00
2018-06-21T02:41:44.848Z,100873.00
2018-06-21T02:44:15.192Z,100866.00
2018-06-21T02:46:45.751Z,100868.00
2018-06-21T02:49:16.149Z,100862.00
2018-06-21T02:51:46.467Z,100848.00
2018-06-21T02:54:16.661Z,100856.00
2018-06-21T02:56:47.882Z,100857.00
2018-06-21T02:59:18.028Z,100862.00
2018-06-21T03:01:48.526Z,100863.00
2018-06-21T03:04:18.975Z,100878.00
2018-06-21T03:06:49.112Z,100872.00
2018-06-21T03:09:19.411Z,100874.00
2018-06-21T03:11:49.565Z,100872.00
2018-06-21T03:14:19.735Z,100871.00
2018-06-21T03:16:50.240Z,100879.00
2018-06-21T03:19:20.444Z,100872.00
2018-06-21T03:21:50.581Z,100889.00
2018-06-21T03:24:21.097Z,100878.00
2018-06-21T03:26:51.614Z,100889.00
2018-06-21T03:29:21.602Z,100885.00
2018-06-21T03:31:52.262Z,100882.00
2018-06-21T03:34:22.312Z,100878.00
2018-06-21T03:36:52.585Z,100878.00
2018-06-21T03:39:22.888Z,100885.00
2018-06-21T03:41:53.083Z,100887.00
2018-06-21T03:44:23.493Z,100886.00
2018-06-21T03:46:53.611Z,100895.00
2018-06-21T03:49:25.651Z,100895.00
2018-06-21T03:51:56.526Z,100899.00
2018-06-21T03:54:27.141Z,100903.00
2018-06-21T03:56:57.143Z,100920.00
2018-06-21T03:59:27.410Z,100925.00
2018-06-21T04:01:57.628Z,100917.00
2018-06-21T04:04:27.845Z,100915.00
2018-06-21T04:06:58.230Z,100917.00
2018-06-21T04:09:28.765Z,100906.00
2018-06-21T04:11:59.130Z,100913.00
2018-06-21T04:14:31.001Z,100916.00
2018-06-21T04:17:01.098Z,100912.00
2018-06-21T04:19:31.370Z,100897.00
2018-06-21T04:22:01.491Z,100896.00
2018-06-21T04:24:31.945Z,100908.00
2018-06-21T04:27:01.904Z,100905.00
2018-06-21T04:29:32.246Z,100904.00
2018-06-21T04:32:02.478Z,100896.00
2018-06-21T04:34:34.689Z,100912.00
2018-06-21T04:37:05.302Z,100921.00
2018-06-21T04:39:35.656Z,100935.00
2018-06-21T04:42:06.132Z,100941.00
2018-06-21T04:44:36.202Z,100948.00
2018-06-21T04:47:06.817Z,100946.00
2018-06-21T04:49:37.160Z,100942.00
2018-06-21T04:52:07.424Z,100950.00
2018-06-21T04:54:37.711Z,100960.00
2018-06-21T04:57:07.954Z,100971.00
2018-06-21T04:59:38.297Z,100977.00
2018-06-21T05:02:08.533Z,100962.00
2018-06-21T05:04:38.692Z,100964.00
2018-06-21T05:07:09.120Z,100931.00
2018-06-21T05:09:39.864Z,100949.00
2018-06-21T05:12:09.977Z,100964.00
2018-06-21T05:14:40.667Z,100964.00
2018-06-21T05:17:10.912Z,100962.00
2018-06-21T05:19:40.972Z,100951.00
2018-06-21T05:22:11.081Z,100947.00
2018-06-21T05:24:41.601Z,100955.00
2018-06-21T05:27:11.766Z,100990.00
2018-06-21T05:29:41.852Z,100958.00
2018-06-21T05:32:12.073Z,100966.00
2018-06-21T05:34:42.374Z,100960.00
2018-06-21T05:37:12.553Z,100972.00
2018-06-21T05:39:42.727Z,100975.00
2018-06-21T05:42:12.883Z,100975.00
2018-06-21T05:44:43.349Z,100973.00
2018-06-21T05:47:13.906Z,100984.00
2018-06-21T05:49:44.254Z,101020.00
2018-06-21T05:52:14.602Z,100978.00
2018-06-21T05:54:45.087Z,100981.00
2018-06-21T05:57:15.522Z,100984.00
2018-06-21T05:59:46.423Z,100982.00
2018-06-21T06:02:16.645Z,101001.00
2018-06-21T06:04:46.842Z,100992.00
2018-06-21T06:07:18.196Z,100985.00
2018-06-21T06:09:49.222Z,101004.00
2018-06-21T06:12:19.595Z,101003.00
2018-06-21T06:14:49.836Z,101015.00
2018-06-21T06:17:20.423Z,101021.00
2018-06-21T06:19:51.033Z,101018.00
2018-06-21T06:22:21.118Z,101010.00
2018-06-21T06:24:51.398Z,101005.00
2018-06-21T06:27:22.898Z,101004.00
2018-06-21T06:29:53.234Z,101003.00
2018-06-21T06:32:23.439Z,100999.00
2018-06-21T06:34:54.228Z,101005.00
2018-06-21T06:37:24.342Z,101009.00
2018-06-21T06:39:55.136Z,101007.00
2018-06-21T06:42:25.406Z,101006.00
2018-06-21T06:44:55.520Z,101007.00
2018-06-21T06:47:26.393Z,101018.00
2018-06-21T06:49:57.072Z,101014.00
2018-06-21T06:52:27.101Z,101019.00
2018-06-21T06:54:57.353Z,101009.00
2018-06-21T06:57:27.634Z,101035.00
2018-06-21T06:59:59.337Z,101026.00
2018-06-21T07:02:29.973Z,101039.00
2018-06-21T07:05:00.167Z,101022.00
2018-06-21T07:07:30.672Z,101026.00
2018-06-21T07:10:01.146Z,101027.00
2018-06-21T07:12:31.628Z,101028.00
2018-06-21T07:15:03.303Z,101024.00
2018-06-21T07:17:40.235Z,101021.00
2018-06-21T07:20:28.107Z,101040.00
2018-06-21T07:23:05.878Z,101024.00
2018-06-21T07:25:37.375Z,101030.00
2018-06-21T07:28:08.697Z,101047.00
2018-06-21T07:30:39.790Z,101038.00
2018-06-21T07:33:11.682Z,101049.00
2018-06-21T07:35:43.856Z,101051.00
2018-06-21T07:38:14.283Z,101078.00
2018-06-21T07:40:44.885Z,101047.00
2018-06-21T07:43:15.067Z,101061.00
2018-06-21T07:45:45.344Z,101065.00
2018-06-21T07:48:16.001Z,101068.00
2018-06-21T07:50:47.431Z,101087.00
2018-06-21T07:53:18.061Z,101085.00
2018-06-21T07:55:48.317Z,101082.00
2018-06-21T07:58:19.250Z,101078.00
2018-06-21T08:00:50.498Z,101089.00
2018-06-21T08:03:21.558Z,101091.00
2018-06-21T08:05:52.561Z,101083.00
2018-06-21T08:08:23.134Z,101095.00
2018-06-21T08:10:53.330Z,101108.00
2018-06-21T08:13:24.465Z,101110.00
2018-06-21T08:15:54.955Z,101104.00
2018-06-21T08:18:25.141Z,101104.00
2018-06-21T08:20:55.644Z,101111.00
2018-06-21T08:23:25.806Z,101113.00
2018-06-21T08:25:56.709Z,101120.00
2018-06-21T08:28:27.232Z,101119.00
2018-06-21T08:30:57.489Z,101102.00
2018-06-21T08:33:28.520Z,101124.00
2018-06-21T08:35:59.325Z,101096.00
2018-06-21T08:38:29.722Z,101101.00
2018-06-21T08:40:59.919Z,101112.00
2018-06-21T08:43:30.621Z,101111.00
2018-06-21T08:46:01.616Z,101127.00
2018-06-21T08:48:31.702Z,101161.00
2018-06-21T08:51:01.777Z,101147.00
2018-06-21T08:53:32.150Z,101159.00
2018-06-21T08:56:02.536Z,101159.00
2018-06-21T08:58:32.741Z,101177.00
2018-06-21T09:01:03.247Z,101148.00
2018-06-21T09:03:33.450Z,101158.00
2018-06-21T09:06:03.989Z,101164.00
2018-06-21T09:08:34.684Z,101159.00
2018-06-21T09:11:04.959Z,101150.00
2018-06-21T09:13:37.819Z,101149.00
2018-06-21T09:16:10.045Z,101164.00
2018-06-21T09:18:41.235Z,101173.00
2018-06-21T09:21:11.455Z,101176.00
2018-06-21T09:23:42.085Z,101166.00
2018-06-21T09:26:12.172Z,101184.00
2018-06-21T09:28:43.113Z,101190.00
2018-06-21T09:31:13.320Z,101185.00
2018-06-21T09:33:43.690Z,101209.00
2018-06-21T09:36:14.057Z,101201.00
2018-06-21T09:38:50.507Z,101204.00
2018-06-21T09:41:25.517Z,101201.00
2018-06-21T09:44:03.825Z,101203.00
2018-06-21T09:46:36.406Z,101184.00
2018-06-21T09:49:06.659Z,101192.00
2018-06-21T09:51:36.934Z,101200.00
2018-06-21T09:54:07.565Z,101208.00
2018-06-21T09:56:38.678Z,101202.00
2018-06-21T09:59:09.330Z,101202.00
2018-06-21T10:01:40.031Z,101192.00
2018-06-21T10:04:10.576Z,101204.00
2018-06-21T10:06:41.686Z,101203.00
2018-06-21T10:09:12.114Z,101223.00
2018-06-21T10:11:42.880Z,101224.00
2018-06-21T10:14:13.181Z,101230.00
2018-06-21T10:16:43.958Z,101238.00
2018-06-21T10:19:14.213Z,101242.00
2018-06-21T10:21:45.329Z,101234.00
2018-06-21T10:24:22.770Z,101228.00
2018-06-21T10:26:53.760Z,101240.00
2018-06-21T10:29:24.445Z,101239.00
2018-06-21T10:31:54.798Z,101242.00
2018-06-21T10:34:25.556Z,101241.00
2018-06-21T10:36:55.783Z,101234.00
2018-06-21T10:39:26.283Z,101259.00
2018-06-21T10:41:56.624Z,101244.00
2018-06-21T10:44:27.359Z,101244.00
2018-06-21T10:46:57.893Z,101227.00
2018-06-21T10:49:28.521Z,101241.00
2018-06-21T10:51:58.904Z,101242.00
2018-06-21T10:54:29.367Z,101249.00
2018-06-21T10:56:59.427Z,101255.00
2018-06-21T10:59:30.448Z,101251.00
2018-06-21T11:02:01.005Z,101259.00
2018-06-21T11:04:31.702Z,101255.00
2018-06-21T11:07:02.068Z,101239.00
2018-06-21T11:09:32.884Z,101251.00
2018-06-21T11:12:03.884Z,101241.00
2018-06-21T11:14:34.361Z,101257.00
2018-06-21T11:17:04.937Z,101257.00
2018-06-21T11:19:35.424Z,101268.00
2018-06-21T11:22:06.145Z,101266.00
2018-06-21T11:24:36.298Z,101263.00
2018-06-21T11:27:06.339Z,101262.00
2018-06-21T11:29:36.941Z,101262.00
2018-06-21T11:32:07.605Z,101267.00
2018-06-21T11:34:38.414Z,101256.00
2018-06-21T11:37:08.784Z,101268.00
2018-06-21T11:39:39.616Z,101276.00
2018-06-21T11:42:09.849Z,101266.00
2018-06-21T11:44:40.226Z,101269.00
2018-06-21T11:47:10.446Z,101270.00
2018-06-21T11:49:40.528Z,101276.00
2018-06-21T11:52:11.282Z,101268.00
2018-06-21T11:54:41.856Z,101276.00
2018-06-21T11:57:12.240Z,101275.00
2018-06-21T11:59:43.131Z,101277.00
2018-06-21T12:02:13.756Z,101284.00
2018-06-21T12:04:45.049Z,101296.00
2018-06-21T12:07:15.471Z,101282.00
2018-06-21T12:09:45.697Z,101281.00
2018-06-21T12:12:15.946Z,101296.00
2018-06-21T12:14:46.177Z,101284.00
2018-06-21T12:17:16.473Z,101285.00
2018-06-21T12:19:46.617Z,101287.00
2018-06-21T12:22:17.197Z,101289.00
2018-06-21T12:24:47.391Z,101296.00
2018-06-21T12:27:17.977Z,101294.00
2018-06-21T12:29:48.221Z,101299.00
2018-06-21T12:32:18.477Z,101304.00
2018-06-21T12:34:48.563Z,101318.00
2018-06-21T12:37:19.443Z,101306.00
2018-06-21T12:39:49.604Z,101288.00
2018-06-21T12:42:20.149Z,101302.00
2018-06-21T12:44:51.269Z,101308.00
2018-06-21T12:47:21.475Z,101302.00
2018-06-21T12:49:51.681Z,101303.00
2018-06-21T12:52:22.351Z,101306.00
2018-06-21T12:54:53.439Z,101322.00
2018-06-21T12:57:23.807Z,101320.00
2018-06-21T12:59:54.122Z,101302.00
2018-06-21T13:02:24.741Z,101318.00
2018-06-21T13:04:55.041Z,101322.00
2018-06-21T13:07:25.701Z,101317.00
2018-06-21T13:10:12.359Z,101317.00
2018-06-21T13:13:03.806Z,101317.00
2018-06-21T13:15:34.433Z,101329.00
2018-06-21T13:18:04.967Z,101317.00
2018-06-21T13:20:35.651Z,101332.00
2018-06-21T13:23:06.006Z,101329.00
2018-06-21T13:25:36.640Z,101325.00
2018-06-21T13:28:07.238Z,101337.00
2018-06-21T13:30:37.546Z,101320.00
2018-06-21T13:33:07.913Z,101318.00
2018-06-21T13:35:38.151Z,101343.00
2018-06-21T13:38:08.699Z,101341.00
2018-06-21T13:40:39.816Z,101336.00
2018-06-21T13:43:10.420Z,101324.00
2018-06-21T13:45:40.798Z,101329.00
2018-06-21T13:48:11.034Z,101322.00
2018-06-21T13:50:41.393Z,101333.00
2018-06-21T13:53:11.758Z,101317.00
2018-06-21T13:55:41.921Z,101309.00
2018-06-21T13:58:12.283Z,101304.00
2018-06-21T14:00:42.996Z,101326.00
2018-06-21T14:03:13.053Z,101341.00
2018-06-21T14:05:44.217Z,101343.00
2018-06-21T14:08:14.739Z,101321.00
2018-06-21T14:10:45.180Z,101312.00
2018-06-21T14:13:16.169Z,101326.00
2018-06-21T14:15:46.596Z,101356.00
2018-06-21T14:18:16.785Z,101335.00
2018-06-21T14:20:47.653Z,101345.00
2018-06-21T14:23:17.981Z,101371.00
2018-06-21T14:25:48.172Z,101340.00
2018-06-21T14:28:18.516Z,101342.00
2018-06-21T14:30:48.606Z,101337.00
2018-06-21T14:33:18.984Z,101350.00
2018-06-21T14:35:49.314Z,101399.00
2018-06-21T14:38:19.607Z,101344.00
2018-06-21T14:40:50.032Z,101395.00
2018-06-21T14:43:20.481Z,101374.00
2018-06-21T14:45:50.649Z,101343.00
2018-06-21T14:48:20.646Z,101345.00
2018-06-21T14:50:51.233Z,101387.00
2018-06-21T14:53:21.497Z,101365.00
2018-06-21T14:55:55.122Z,101349.00
2018-06-21T14:58:25.521Z,101373.00
2018-06-21T15:00:56.220Z,101380.00
2018-06-21T15:03:26.613Z,101395.00
2018-06-21T15:05:56.941Z,101401.00
2018-06-21T15:08:27.105Z,101381.00
2018-06-21T15:10:58.077Z,101378.00
2018-06-21T15:13:28.202Z,101374.00
2018-06-21T15:15:59.814Z,101382.00
2018-06-21T15:18:30.084Z,101387.00
2018-06-21T15:21:01.463Z,101406.00
2018-06-21T15:23:31.745Z,101411.00
2018-06-21T15:26:02.300Z,101417.00
2018-06-21T15:28:33.294Z,101387.00
2018-06-21T15:31:04.138Z,101391.00
2018-06-21T15:33:34.886Z,101419.00
2018-06-21T15:36:05.915Z,101397.00
2018-06-21T15:38:36.818Z,101389.00
2018-06-21T15:41:07.857Z,101417.00
2018-06-21T15:43:38.917Z,101431.00
2018-06-21T15:46:09.379Z,101417.00
2018-06-21T15:48:41.002Z,101405.00
2018-06-21T15:51:12.569Z,101408.00
2018-06-21T15:53:43.062Z,101417.00
2018-06-21T15:56:13.778Z,101411.00
2018-06-21T15:58:44.249Z,101424.00
2018-06-21T16:01:15.825Z,101441.00
2018-06-21T16:03:46.154Z,101426.00
2018-06-21T16:06:17.460Z,101425.00
2018-06-21T16:08:49.307Z,101435.00
2018-06-21T16:11:20.231Z,101439.00
2018-06-21T16:13:50.657Z,101450.00
2018-06-21T16:16:21.304Z,101431.00
2018-06-21T16:18:53.616Z,101432.00
2018-06-21T16:21:24.024Z,101445.00
2018-06-21T16:23:54.380Z,101449.00
2018-06-21T16:26:24.741Z,101465.00
2018-06-21T16:28:55.211Z,101471.00
2018-06-21T16:31:26.281Z,101464.00
2018-06-21T16:33:57.047Z,101451.00
2018-06-21T16:36:27.440Z,101453.00
2018-06-21T16:38:58.197Z,101443.00
2018-06-21T16:41:28.850Z,101452.00
2018-06-21T16:43:59.157Z,101462.00
2018-06-21T16:46:29.414Z,101465.00
2018-06-21T16:48:59.729Z,101461.00
2018-06-21T16:51:30.384Z,101475.00
2018-06-21T16:54:01.022Z,101473.00
2018-06-21T16:56:31.057Z,101472.00
2018-06-21T16:59:01.207Z,101480.00
2018-06-21T17:01:31.711Z,101460.00
2018-06-21T17:04:02.798Z,101466.00
2018-06-21T17:06:34.643Z,101469.00
2018-06-21T17:09:06.993Z,101474.00
2018-06-21T17:11:38.359Z,101477.00
2018-06-21T17:14:09.527Z,101487.00
2018-06-21T17:16:39.855Z,101477.00
2018-06-21T17:19:11.200Z,101478.00
2018-06-21T17:21:41.564Z,101485.00
2018-06-21T17:24:12.448Z,101495.00
2018-06-21T17:26:44.201Z,101481.00
2018-06-21T17:29:15.045Z,101490.00
2018-06-21T17:31:50.422Z,101494.00
2018-06-21T17:34:21.626Z,101493.00
2018-06-21T17:36:51.897Z,101494.00
2018-06-21T17:39:22.545Z,101493.00
2018-06-21T17:41:52.831Z,101494.00
2018-06-21T17:44:23.390Z,101502.00
2018-06-21T17:46:53.665Z,101496.00
2018-06-21T17:49:23.708Z,101498.00
2018-06-21T17:51:54.386Z,101501.00
2018-06-21T17:54:24.826Z,101503.00
2018-06-21T17:56:54.959Z,101504.00
2018-06-21T17:59:26.409Z,101506.00
2018-06-21T18:01:56.995Z,101506.00
2018-06-21T18:04:27.366Z,101495.00
2018-06-21T18:06:57.935Z,101514.00
2018-06-21T18:09:28.195Z,101504.00
2018-06-21T18:11:58.772Z,101504.00
2018-06-21T18:14:29.861Z,101500.00
2018-06-21T18:17:00.471Z,101505.00
2018-06-21T18:19:30.716Z,101503.00
2018-06-21T18:22:01.062Z,101509.00
2018-06-21T18:24:32.293Z,101508.00
2018-06-21T18:27:02.743Z,101516.00
2018-06-21T18:29:33.024Z,101511.00
2018-06-21T18:32:03.265Z,101506.00
2018-06-21T18:34:33.765Z,101510.00
2018-06-21T18:37:04.024Z,101523.00
2018-06-21T18:39:34.460Z,101516.00
2018-06-21T18:42:04.608Z,101528.00
2018-06-21T18:44:35.437Z,101524.00
2018-06-21T18:47:06.936Z,101534.00
2018-06-21T18:49:37.093Z,101536.00
2018-06-21T18:52:07.551Z,101525.00
2018-06-21T18:54:38.161Z,101532.00
2018-06-21T18:57:08.715Z,101527.00
2018-06-21T18:59:39.413Z,101532.00
2018-06-21T19:02:09.852Z,101537.00
2018-06-21T19:04:40.051Z,101541.00
2018-06-21T19:07:15.189Z,101545.00
2018-06-21T19:09:50.613Z,101552.00
2018-06-21T19:12:20.758Z,101550.00
2018-06-21T19:14:51.044Z,101544.00
2018-06-21T19:17:21.471Z,101555.00
2018-06-21T19:19:51.912Z,101554.00
2018-06-21T19:22:22.636Z,101552.00
2018-06-21T19:24:53.452Z,101560.00
2018-06-21T19:27:23.647Z,101557.00
2018-06-21T19:29:54.081Z,101547.00
2018-06-21T19:32:24.465Z,101556.00
2018-06-21T19:34:54.758Z,101558.00
2018-06-21T19:37:24.761Z,101563.00
2018-06-21T19:39:55.359Z,101559.00
2018-06-21T19:42:26.161Z,101561.00
2018-06-21T19:44:56.585Z,101570.00
2018-06-21T19:47:27.225Z,101577.00
2018-06-21T19:49:58.377Z,101575.00
2018-06-21T19:52:28.782Z,101575.00
2018-06-21T19:54:59.105Z,101577.00
2018-06-21T19:57:30.662Z,101582.00
2018-06-21T20:00:00.781Z,101578.00
2018-06-21T20:02:36.131Z,101577.00
2018-06-21T20:05:06.475Z,101587.00
2018-06-21T20:07:37.437Z,101587.00
2018-06-21T20:10:07.746Z,101582.00
2018-06-21T20:12:38.119Z,101579.00
2018-06-21T20:15:09.538Z,101577.00
2018-06-21T20:17:40.190Z,101575.00
2018-06-21T20:20:15.904Z,101584.00
2018-06-21T20:22:47.052Z,101587.00
2018-06-21T20:25:17.369Z,101588.00
2018-06-21T20:27:47.787Z,101582.00
2018-06-21T20:30:18.452Z,101590.00
2018-06-21T20:32:48.899Z,101589.00
2018-06-21T20:35:19.096Z,101602.00
2018-06-21T20:37:49.542Z,101596.00
2018-06-21T20:40:20.318Z,101599.00
2018-06-21T20:42:50.910Z,101595.00
2018-06-21T20:45:21.130Z,101593.00
2018-06-21T20:47:51.827Z,101607.00
2018-06-21T20:50:21.949Z,101604.00
2018-06-21T20:52:53.140Z,101593.00
2018-06-21T20:55:24.275Z,101602.00
2018-06-21T20:57:54.301Z,101599.00
2018-06-21T21:00:24.697Z,101604.00
2018-06-21T21:02:54.982Z,101606.00
2018-06-21T21:05:25.970Z,101601.00
2018-06-21T21:07:57.305Z,101603.00
2018-06-21T21:10:28.338Z,101604.00
2018-06-21T21:13:00.304Z,101617.00
2018-06-21T21:15:30.573Z,101608.00
2018-06-21T21:18:01.073Z,101608.00
2018-06-21T21:20:32.648Z,101612.00
2018-06-21T21:23:02.851Z,101615.00
2018-06-21T21:25:33.982Z,101618.00
2018-06-21T21:28:03.878Z,101627.00
2018-06-21T21:30:35.403Z,101623.00
2018-06-21T21:33:06.080Z,101625.00
2018-06-21T21:35:37.718Z,101627.00
2018-06-21T21:38:08.740Z,101623.00
2018-06-21T21:40:40.057Z,101625.00
2018-06-21T21:43:10.569Z,101628.00
2018-06-21T21:45:40.980Z,101642.00
2018-06-21T21:48:11.313Z,101642.00
2018-06-21T21:50:41.700Z,101632.00
2018-06-21T21:53:12.049Z,101631.00
2018-06-21T21:55:42.548Z,101628.00
2018-06-21T21:58:12.838Z,101638.00
2018-06-21T22:00:56.695Z,101635.00
2018-06-21T22:03:27.172Z,101634.00
2018-06-21T22:05:57.795Z,101645.00
2018-06-21T22:08:28.299Z,101646.00
2018-06-21T22:10:58.772Z,101647.00
2018-06-21T22:13:29.884Z,101639.00
2018-06-21T22:16:00.626Z,101639.00
2018-06-21T22:18:31.763Z,101638.00
2018-06-21T22:21:01.710Z,101643.00
2018-06-21T22:23:32.062Z,101639.00
2018-06-21T22:26:02.419Z,101639.00
2018-06-21T22:28:32.956Z,101634.00
2018-06-21T22:31:03.409Z,101637.00
2018-06-21T22:33:33.756Z,101636.00
2018-06-21T22:36:04.599Z,101641.00
2018-06-21T22:38:35.678Z,101636.00
2018-06-21T22:41:05.778Z,101638.00
2018-06-21T22:43:36.420Z,101639.00
2018-06-21T22:46:07.517Z,101634.00
2018-06-21T22:48:38.201Z,101637.00
2018-06-21T22:51:08.464Z,101639.00
2018-06-21T22:53:38.982Z,101628.00
2018-06-21T22:56:09.175Z,101629.00
2018-06-21T22:58:40.376Z,101638.00
2018-06-21T23:01:11.482Z,101626.00
2018-06-21T23:03:41.679Z,101630.00
2018-06-21T23:06:12.265Z,101632.00
2018-06-21T23:08:42.700Z,101636.00
2018-06-21T23:11:13.070Z,101633.00
2018-06-21T23:13:43.164Z,101629.00
2018-06-21T23:16:13.414Z,101623.00
2018-06-21T23:19:00.306Z,101623.00
2018-06-21T23:21:30.467Z,101624.00
2018-06-21T23:24:01.046Z,101630.00
2018-06-21T23:26:31.344Z,101628.00
2018-06-21T23:29:01.490Z,101619.00
2018-06-21T23:31:31.664Z,101626.00
2018-06-21T23:34:02.036Z,101617.00
2018-06-21T23:36:32.106Z,101619.00
2018-06-21T23:39:02.316Z,101616.00
2018-06-21T23:41:32.737Z,101625.00
2018-06-21T23:44:02.984Z,101619.00
2018-06-21T23:46:33.799Z,101624.00
2018-06-21T23:49:04.424Z,101618.00
2018-06-21T23:51:35.209Z,101613.00
2018-06-21T23:54:05.975Z,101616.00
2018-06-21T23:56:37.553Z,101618.00
2018-06-21T23:59:07.915Z,101628.00
